Time;durP1;ratioP1;P1;durP2;ratioP2;P2;SDS_P1;SDS_P2;PMS_P1;PMS_P2;Temp;Humidity;BMP_temperature;BMP_pressure;BME280_temperature;BME280_humidity;BME280_pressure;Samples;Min_cycle;Max_cycle;Signal;HPM_P1;HPM_P2
2022/11/21 00:01:23;;;;;;;28.45;12.27;;;;;;;;;;6191830;23;20610;-93
2022/11/21 00:03:49;;;;;;;31.52;13.40;;;;;;;;;;6216886;23;20340;-94
2022/11/21 00:06:15;;;;;;;29.48;12.95;;;;;;;;;;6219989;23;20254;-93
2022/11/21 00:08:42;;;;;;;29.02;13.65;;;;;;;;;;6198223;23;20004;-94
2022/11/21 00:11:08;;;;;;;33.53;13.50;;;;;;;;;;6199476;23;20539;-94
2022/11/21 00:13:34;;;;;;;30.80;13.13;;;;;;;;;;6202788;23;20027;-93
2022/11/21 00:16:07;;;;;;;28.00;13.27;;;;;;;;;;6202015;23;20020;-93
2022/11/21 00:18:34;;;;;;;21.65;11.27;;;;;;;;;;6202651;23;20008;-94
2022/11/21 00:21:07;;;;;;;27.95;12.18;;;;;;;;;;6225306;23;20012;-93
2022/11/21 00:23:33;;;;;;;26.48;12.57;;;;;;;;;;6224947;23;20008;-93
2022/11/21 00:26:03;;;;;;;24.88;12.10;;;;;;;;;;6219826;23;20012;-94
2022/11/21 00:28:29;;;;;;;26.05;13.52;;;;;;;;;;6217466;23;20004;-94
2022/11/21 00:30:55;;;;;;;30.10;13.88;;;;;;;;;;6191412;23;20415;-94
2022/11/21 00:33:22;;;;;;;33.42;13.20;;;;;;;;;;6191517;23;20004;-94
2022/11/21 00:35:48;;;;;;;30.20;11.85;;;;;;;;;;6190563;23;20193;-94
2022/11/21 00:38:15;;;;;;;29.52;12.80;;;;;;;;;;6190525;23;20030;-94
2022/11/21 00:40:42;;;;;;;26.92;12.23;;;;;;;;;;6215771;23;20000;-95
2022/11/21 00:43:08;;;;;;;26.15;12.00;;;;;;;;;;6214710;23;20031;-94
2022/11/21 00:45:34;;;;;;;32.53;13.23;;;;;;;;;;6188940;23;20024;-94
2022/11/21 00:48:00;;;;;;;29.00;12.40;;;;;;;;;;6190313;23;20031;-94
2022/11/21 00:50:26;;;;;;;29.75;12.48;;;;;;;;;;6215303;23;20008;-94
2022/11/21 00:52:56;;;;;;;29.92;12.23;;;;;;;;;;6214363;23;20008;-94
2022/11/21 00:55:22;;;;;;;27.45;12.10;;;;;;;;;;6188932;23;20012;-94
2022/11/21 00:57:48;;;;;;;32.10;13.85;;;;;;;;;;6189566;23;20036;-94
2022/11/21 01:00:15;;;;;;;37.63;13.15;;;;;;;;;;6215962;23;20000;-94
2022/11/21 01:02:41;;;;;;;32.65;13.13;;;;;;;;;;6215532;23;20091;-94
2022/11/21 01:05:07;;;;;;;29.00;12.20;;;;;;;;;;6190155;23;20035;-95
2022/11/21 01:07:33;;;;;;;28.20;12.27;;;;;;;;;;6188980;23;20012;-94
2022/11/21 01:09:59;;;;;;;29.15;12.35;;;;;;;;;;6190459;23;20012;-94
2022/11/21 01:12:25;;;;;;;35.88;13.18;;;;;;;;;;6213578;23;20001;-93
2022/11/21 01:14:51;;;;;;;30.42;12.68;;;;;;;;;;6190771;23;20012;-93
2022/11/21 01:17:17;;;;;;;28.40;13.15;;;;;;;;;;6190018;23;20433;-94
2022/11/21 01:19:44;;;;;;;34.35;12.93;;;;;;;;;;6214621;23;20019;-93
2022/11/21 01:22:10;;;;;;;31.33;12.85;;;;;;;;;;6241826;23;20004;-93
2022/11/21 01:24:36;;;;;;;31.10;11.80;;;;;;;;;;6191001;23;20444;-94
2022/11/21 01:27:02;;;;;;;29.77;11.90;;;;;;;;;;6213820;23;20012;-94
2022/11/21 01:29:29;;;;;;;26.45;11.98;;;;;;;;;;6190175;23;20535;-94
2022/11/21 01:31:55;;;;;;;31.10;11.93;;;;;;;;;;6214525;23;20066;-94
2022/11/21 01:34:21;;;;;;;32.40;12.70;;;;;;;;;;6190466;23;20087;-94
2022/11/21 01:36:53;;;;;;;26.35;11.88;;;;;;;;;;6189295;23;20059;-94
2022/11/21 01:39:19;;;;;;;29.08;13.00;;;;;;;;;;6192406;23;20013;-94
2022/11/21 01:41:45;;;;;;;29.38;13.38;;;;;;;;;;6187709;23;20378;-94
2022/11/21 01:44:17;;;;;;;35.35;13.68;;;;;;;;;;6190934;22;20080;-94
2022/11/21 01:46:44;;;;;;;38.30;13.85;;;;;;;;;;6185149;23;20013;-94
2022/11/21 01:49:10;;;;;;;32.88;13.60;;;;;;;;;;6159263;23;20078;-94
2022/11/21 01:51:39;;;;;;;33.20;12.63;;;;;;;;;;6185406;23;20004;-94
2022/11/21 01:54:09;;;;;;;33.50;13.80;;;;;;;;;;6178944;23;20008;-95
2022/11/21 01:56:47;;;;;;;31.88;13.70;;;;;;;;;;6184218;23;20504;-94
2022/11/21 01:59:17;;;;;;;31.48;12.55;;;;;;;;;;6185441;23;20428;-94
2022/11/21 02:01:44;;;;;;;31.85;13.13;;;;;;;;;;6184603;23;20045;-95
2022/11/21 02:04:10;;;;;;;30.60;13.32;;;;;;;;;;6160930;23;20396;-94
2022/11/21 02:06:36;;;;;;;27.15;12.00;;;;;;;;;;6159811;23;20370;-94
2022/11/21 02:09:04;;;;;;;33.10;12.35;;;;;;;;;;6186238;23;20050;-95
2022/11/21 02:11:48;;;;;;;31.23;13.07;;;;;;;;;;6210110;23;20012;-94
2022/11/21 02:14:14;;;;;;;30.25;13.10;;;;;;;;;;6185885;23;20009;-94
2022/11/21 02:16:41;;;;;;;29.95;13.18;;;;;;;;;;6183321;23;20094;-94
2022/11/21 02:19:10;;;;;;;32.95;13.27;;;;;;;;;;6183913;23;20734;-94
2022/11/21 02:21:36;;;;;;;32.60;14.48;;;;;;;;;;6184471;23;20092;-94
2022/11/21 02:24:21;;;;;;;40.00;15.65;;;;;;;;;;6184898;23;20444;-94
2022/11/21 02:26:48;;;;;;;36.83;15.30;;;;;;;;;;6182899;23;20091;-94
2022/11/21 02:29:14;;;;;;;43.08;14.95;;;;;;;;;;6185099;23;20011;-94
2022/11/21 02:31:40;;;;;;;44.08;16.75;;;;;;;;;;6184888;23;20384;-93
2022/11/21 02:34:06;;;;;;;44.50;15.95;;;;;;;;;;6159611;23;20009;-94
2022/11/21 02:36:46;;;;;;;38.90;16.15;;;;;;;;;;6160574;23;20016;-94
2022/11/21 02:39:23;;;;;;;40.38;15.48;;;;;;;;;;6184258;23;20012;-95
2022/11/21 02:42:12;;;;;;;33.60;14.95;;;;;;;;;;6186347;23;20012;-93
2022/11/21 02:44:43;;;;;;;39.30;15.25;;;;;;;;;;6206781;22;20047;-94
2022/11/21 02:47:09;;;;;;;38.35;16.08;;;;;;;;;;6219376;23;20004;-94
2022/11/21 02:49:40;;;;;;;39.58;15.57;;;;;;;;;;6193176;23;20087;-93
2022/11/21 02:52:06;;;;;;;39.58;16.00;;;;;;;;;;6220175;23;20004;-94
2022/11/21 02:54:32;;;;;;;36.83;15.30;;;;;;;;;;6193431;23;20008;-94
2022/11/21 02:56:58;;;;;;;34.38;15.02;;;;;;;;;;6194807;23;20023;-94
2022/11/21 02:59:24;;;;;;;32.33;13.18;;;;;;;;;;6193287;23;20008;-94
2022/11/21 03:01:50;;;;;;;39.05;15.82;;;;;;;;;;6195017;23;20344;-94
2022/11/21 03:04:16;;;;;;;42.33;16.13;;;;;;;;;;6194356;23;20032;-93
2022/11/21 03:06:42;;;;;;;39.03;16.23;;;;;;;;;;6194602;23;20017;-94
2022/11/21 03:09:08;;;;;;;38.45;17.05;;;;;;;;;;6193934;23;20008;-94
2022/11/21 03:11:34;;;;;;;49.38;18.55;;;;;;;;;;6193462;23;20012;-93
2022/11/21 03:14:00;;;;;;;38.13;17.23;;;;;;;;;;6194191;23;20071;-93
2022/11/21 03:16:26;;;;;;;41.08;15.93;;;;;;;;;;6195190;23;20083;-94
2022/11/21 03:18:52;;;;;;;36.92;16.17;;;;;;;;;;6194858;23;20012;-94
2022/11/21 03:21:18;;;;;;;37.65;15.85;;;;;;;;;;6215695;23;20016;-93
2022/11/21 03:23:44;;;;;;;39.45;16.17;;;;;;;;;;6218342;23;20087;-93
2022/11/21 03:26:17;;;;;;;44.55;16.67;;;;;;;;;;6193469;23;20019;-94
2022/11/21 03:28:43;;;;;;;41.90;15.80;;;;;;;;;;6195085;23;20436;-94
2022/11/21 03:31:09;;;;;;;35.05;14.10;;;;;;;;;;6196142;23;20071;-93
2022/11/21 03:33:35;;;;;;;45.15;15.68;;;;;;;;;;6221967;23;20074;-94
2022/11/21 03:36:01;;;;;;;39.55;17.10;;;;;;;;;;6200952;23;20008;-93
2022/11/21 03:38:27;;;;;;;37.85;16.95;;;;;;;;;;6201359;23;20019;-93
2022/11/21 03:40:53;;;;;;;42.67;16.65;;;;;;;;;;6208892;23;20000;-93
2022/11/21 03:43:19;;;;;;;45.67;17.10;;;;;;;;;;6208702;23;20012;-92
2022/11/21 03:45:46;;;;;;;51.22;16.40;;;;;;;;;;6235112;22;20016;-94
2022/11/21 03:48:13;;;;;;;43.30;16.40;;;;;;;;;;6235089;23;20051;-93
2022/11/21 03:50:41;;;;;;;42.63;16.52;;;;;;;;;;6207957;23;20035;-96
2022/11/21 03:53:07;;;;;;;36.50;16.80;;;;;;;;;;6229740;23;20059;-94
2022/11/21 03:55:33;;;;;;;41.33;17.23;;;;;;;;;;6222260;23;20000;-93
2022/11/21 03:57:59;;;;;;;43.75;15.43;;;;;;;;;;6195301;23;20107;-94
2022/11/21 04:00:25;;;;;;;41.25;15.75;;;;;;;;;;6219672;23;20008;-94
2022/11/21 04:02:51;;;;;;;35.95;14.73;;;;;;;;;;6194233;23;20019;-94
2022/11/21 04:05:17;;;;;;;37.10;15.73;;;;;;;;;;6195010;23;20043;-94
2022/11/21 04:07:44;;;;;;;46.25;17.45;;;;;;;;;;6193922;23;20008;-94
2022/11/21 04:10:11;;;;;;;33.80;13.95;;;;;;;;;;6219836;23;20001;-94
2022/11/21 04:12:37;;;;;;;27.08;9.30;;;;;;;;;;6193258;23;20011;-93
2022/11/21 04:15:03;;;;;;;39.35;15.75;;;;;;;;;;6221037;23;20004;-96
2022/11/21 04:17:30;;;;;;;40.88;17.30;;;;;;;;;;6194022;23;20008;-94
2022/11/21 04:19:57;;;;;;;36.63;15.00;;;;;;;;;;6194811;23;20015;-94
2022/11/21 04:22:23;;;;;;;43.72;15.60;;;;;;;;;;6193380;23;20432;-94
2022/11/21 04:24:49;;;;;;;42.92;16.33;;;;;;;;;;6195008;23;20034;-94
2022/11/21 04:27:15;;;;;;;35.97;15.73;;;;;;;;;;6193083;23;20027;-95
2022/11/21 04:29:41;;;;;;;37.40;16.20;;;;;;;;;;6194537;23;20348;-92
2022/11/21 04:32:07;;;;;;;42.92;14.32;;;;;;;;;;6218849;23;20070;-94
2022/11/21 04:34:33;;;;;;;35.88;15.50;;;;;;;;;;6193327;23;20005;-95
2022/11/21 04:36:59;;;;;;;38.20;15.50;;;;;;;;;;6218931;23;20178;-94
2022/11/21 04:39:25;;;;;;;40.30;14.10;;;;;;;;;;6193708;23;20008;-94
2022/11/21 04:41:51;;;;;;;33.58;13.90;;;;;;;;;;6192890;23;20012;-95
2022/11/21 04:44:17;;;;;;;31.90;13.15;;;;;;;;;;6193623;23;20249;-94
2022/11/21 04:46:43;;;;;;;37.47;14.52;;;;;;;;;;6219152;22;20008;-94
2022/11/21 04:49:09;;;;;;;37.08;13.40;;;;;;;;;;6193367;23;20008;-94
2022/11/21 04:51:35;;;;;;;35.80;13.15;;;;;;;;;;6194342;23;20004;-94
2022/11/21 04:54:01;;;;;;;28.70;13.65;;;;;;;;;;6193286;23;20032;-94
2022/11/21 04:56:27;;;;;;;33.67;13.60;;;;;;;;;;6193220;23;20023;-94
2022/11/21 04:58:53;;;;;;;31.42;13.90;;;;;;;;;;6193728;23;20008;-95
2022/11/21 05:01:19;;;;;;;35.28;14.18;;;;;;;;;;6192753;23;20027;-93
2022/11/21 05:03:45;;;;;;;33.38;13.82;;;;;;;;;;6194900;23;20008;-94
2022/11/21 05:06:11;;;;;;;35.88;14.13;;;;;;;;;;6192637;23;20067;-92
2022/11/21 05:08:37;;;;;;;33.33;14.35;;;;;;;;;;6193082;23;20091;-94
2022/11/21 05:13:47;;;;;;;34.00;15.07;;;;;;;;;;6222215;23;20047;-94
2022/11/21 05:16:13;;;;;;;35.70;15.20;;;;;;;;;;6191472;23;20019;-95
2022/11/21 05:18:39;;;;;;;39.08;14.32;;;;;;;;;;6193545;23;20012;-93
2022/11/21 05:21:05;;;;;;;47.08;16.30;;;;;;;;;;6193361;23;20020;-93
2022/11/21 05:23:31;;;;;;;32.03;14.68;;;;;;;;;;6193662;23;20016;-94
2022/11/21 05:25:57;;;;;;;39.72;15.30;;;;;;;;;;6218555;23;20437;-94
2022/11/21 05:28:23;;;;;;;33.50;15.07;;;;;;;;;;6193216;23;20012;-93
2022/11/21 05:30:49;;;;;;;38.97;16.17;;;;;;;;;;6194310;23;20011;-94
2022/11/21 05:33:16;;;;;;;41.20;15.25;;;;;;;;;;6217243;23;20008;-94
2022/11/21 05:35:42;;;;;;;49.65;16.45;;;;;;;;;;6218269;23;20012;-94
2022/11/21 05:38:16;;;;;;;38.15;16.38;;;;;;;;;;6194908;23;20043;-94
2022/11/21 05:40:42;;;;;;;38.65;15.82;;;;;;;;;;6193012;23;20119;-93
2022/11/21 05:46:06;;;;;;;33.15;14.38;;;;;;;;;;6246975;22;20027;-93
2022/11/21 05:48:35;;;;;;;37.38;16.35;;;;;;;;;;6194933;23;20008;-94
2022/11/21 05:51:01;;;;;;;33.28;13.73;;;;;;;;;;6217972;23;20317;-94
2022/11/21 05:53:27;;;;;;;34.50;15.10;;;;;;;;;;6216879;23;20027;-93
2022/11/21 05:55:53;;;;;;;35.72;14.48;;;;;;;;;;6192606;23;20015;-94
2022/11/21 05:58:19;;;;;;;42.00;15.75;;;;;;;;;;6193044;23;20073;-94
2022/11/21 06:00:46;;;;;;;37.15;15.32;;;;;;;;;;6215475;23;20034;-92
2022/11/21 06:03:27;;;;;;;40.50;15.68;;;;;;;;;;6215921;23;20015;-92
2022/11/21 06:06:02;;;;;;;47.17;18.40;;;;;;;;;;6193118;23;20043;-91
2022/11/21 06:08:29;;;;;;;49.17;16.73;;;;;;;;;;6216986;23;20004;-91
2022/11/21 06:10:55;;;;;;;45.60;18.42;;;;;;;;;;6215315;23;20479;-92
2022/11/21 06:13:21;;;;;;;40.13;17.33;;;;;;;;;;6215635;23;20440;-91
2022/11/21 06:16:07;;;;;;;45.05;16.83;;;;;;;;;;6190639;23;20015;-92
2022/11/21 06:18:35;;;;;;;40.20;16.88;;;;;;;;;;6215548;23;20008;-91
2022/11/21 06:21:06;;;;;;;34.13;15.73;;;;;;;;;;6216550;23;20008;-92
2022/11/21 06:23:32;;;;;;;38.90;16.73;;;;;;;;;;6217688;23;20087;-91
2022/11/21 06:25:59;;;;;;;46.28;17.38;;;;;;;;;;6193445;23;20008;-92
2022/11/21 06:28:51;;;;;;;43.08;17.77;;;;;;;;;;6218614;23;20443;-92
2022/11/21 06:31:19;;;;;;;49.95;17.52;;;;;;;;;;6213023;23;20004;-92
2022/11/21 06:33:45;;;;;;;41.50;16.35;;;;;;;;;;6218420;23;20058;-91
2022/11/21 06:36:15;;;;;;;41.78;16.25;;;;;;;;;;6219553;23;20115;-91
2022/11/21 06:38:42;;;;;;;43.13;16.67;;;;;;;;;;6218444;23;20501;-91
2022/11/21 06:41:16;;;;;;;38.72;15.45;;;;;;;;;;6193899;23;20007;-91
2022/11/21 06:43:42;;;;;;;38.60;15.70;;;;;;;;;;6218913;23;20000;-91
2022/11/21 06:46:09;;;;;;;47.28;16.80;;;;;;;;;;6183376;22;20016;-91
2022/11/21 06:48:36;;;;;;;46.47;17.00;;;;;;;;;;6214042;23;20076;-91
2022/11/21 06:51:11;;;;;;;39.15;15.52;;;;;;;;;;6164980;23;20074;-91
2022/11/21 06:53:37;;;;;;;42.85;16.48;;;;;;;;;;6192367;23;20004;-91
2022/11/21 06:56:04;;;;;;;43.05;17.25;;;;;;;;;;6166953;23;20019;-90
2022/11/21 06:58:32;;;;;;;45.72;16.88;;;;;;;;;;6168568;23;20490;-91
2022/11/21 07:00:58;;;;;;;47.72;16.27;;;;;;;;;;6193977;23;20004;-91
2022/11/21 07:03:24;;;;;;;48.63;17.42;;;;;;;;;;6198105;23;20452;-91
2022/11/21 07:05:51;;;;;;;39.63;15.80;;;;;;;;;;6174256;23;20016;-92
2022/11/21 07:08:17;;;;;;;44.97;16.48;;;;;;;;;;6204024;23;20001;-92
2022/11/21 07:10:43;;;;;;;46.90;17.95;;;;;;;;;;6178139;23;20004;-91
2022/11/21 07:13:20;;;;;;;44.35;17.70;;;;;;;;;;6181609;23;20016;-90
2022/11/21 07:15:47;;;;;;;43.65;16.95;;;;;;;;;;6196613;23;20028;-90
2022/11/21 07:18:13;;;;;;;42.10;16.88;;;;;;;;;;6194299;23;20084;-91
2022/11/21 07:20:40;;;;;;;48.78;18.63;;;;;;;;;;6191076;23;20008;-90
2022/11/21 07:23:06;;;;;;;42.08;17.63;;;;;;;;;;6189124;23;20499;-91
2022/11/21 07:25:32;;;;;;;46.35;18.33;;;;;;;;;;6188070;23;20043;-91
2022/11/21 07:28:02;;;;;;;41.20;17.58;;;;;;;;;;6163944;23;20115;-91
2022/11/21 07:30:28;;;;;;;55.45;19.17;;;;;;;;;;6188050;23;20009;-90
2022/11/21 07:32:55;;;;;;;50.38;19.48;;;;;;;;;;6162799;23;20392;-90
2022/11/21 07:35:21;;;;;;;41.45;16.35;;;;;;;;;;6186579;23;20087;-91
2022/11/21 07:37:47;;;;;;;38.20;16.67;;;;;;;;;;6163118;23;20044;-91
2022/11/21 07:40:13;;;;;;;46.47;17.80;;;;;;;;;;6164032;23;20028;-91
2022/11/21 07:42:39;;;;;;;44.78;16.40;;;;;;;;;;6162285;23;20441;-90
2022/11/21 07:45:05;;;;;;;38.28;14.82;;;;;;;;;;6162741;23;20031;-91
2022/11/21 07:47:32;;;;;;;47.65;15.23;;;;;;;;;;6192231;22;20024;-91
2022/11/21 07:49:58;;;;;;;47.42;18.10;;;;;;;;;;6217579;23;20493;-91
2022/11/21 07:52:24;;;;;;;50.65;18.80;;;;;;;;;;6217134;23;20140;-90
2022/11/21 07:54:50;;;;;;;47.67;16.90;;;;;;;;;;6216906;23;20043;-91
2022/11/21 07:57:16;;;;;;;48.45;17.90;;;;;;;;;;6215494;23;20072;-90
2022/11/21 07:59:43;;;;;;;43.10;17.35;;;;;;;;;;6193157;23;20008;-90
2022/11/21 08:02:19;;;;;;;43.15;16.52;;;;;;;;;;6217466;23;20024;-90
2022/11/21 08:04:46;;;;;;;33.47;13.40;;;;;;;;;;6217308;23;20286;-91
2022/11/21 08:07:12;;;;;;;39.53;15.27;;;;;;;;;;6217110;23;20011;-89
2022/11/21 08:09:38;;;;;;;32.58;15.30;;;;;;;;;;6215283;23;20003;-91
2022/11/21 08:12:04;;;;;;;39.13;16.08;;;;;;;;;;6214603;23;20011;-91
2022/11/21 08:14:30;;;;;;;40.55;16.67;;;;;;;;;;6192842;23;20199;-90
2022/11/21 08:16:56;;;;;;;37.50;15.82;;;;;;;;;;6191709;23;20099;-91
2022/11/21 08:19:22;;;;;;;36.05;13.88;;;;;;;;;;6192139;23;20012;-91
2022/11/21 08:21:48;;;;;;;40.95;16.58;;;;;;;;;;6192153;23;20012;-90
2022/11/21 08:24:16;;;;;;;39.05;15.80;;;;;;;;;;6192553;23;20344;-91
2022/11/21 08:26:42;;;;;;;38.20;15.20;;;;;;;;;;6192954;23;20007;-91
2022/11/21 08:29:09;;;;;;;45.47;18.00;;;;;;;;;;6191652;23;20008;-90
2022/11/21 08:31:36;;;;;;;43.03;17.73;;;;;;;;;;6191867;23;20016;-90
2022/11/21 08:34:02;;;;;;;46.20;18.73;;;;;;;;;;6217487;23;20349;-90
2022/11/21 08:36:28;;;;;;;47.45;17.58;;;;;;;;;;6190617;23;20540;-90
2022/11/21 08:38:54;;;;;;;45.42;18.80;;;;;;;;;;6192145;23;20008;-91
2022/11/21 08:44:05;;;;;;;42.20;16.35;;;;;;;;;;6243182;23;20042;-91
2022/11/21 08:46:44;;;;;;;44.67;17.92;;;;;;;;;;6191695;23;20020;-91
2022/11/21 08:49:10;;;;;;;52.42;18.77;;;;;;;;;;6243068;23;20028;-91
2022/11/21 08:51:36;;;;;;;49.25;18.77;;;;;;;;;;6191753;23;20012;-91
2022/11/21 08:54:02;;;;;;;46.35;19.17;;;;;;;;;;6215260;23;20440;-90
2022/11/21 08:56:28;;;;;;;50.00;19.45;;;;;;;;;;6191599;23;20015;-91
2022/11/21 08:58:55;;;;;;;40.92;17.40;;;;;;;;;;6214469;23;20008;-90
2022/11/21 09:01:21;;;;;;;43.30;17.95;;;;;;;;;;6191729;23;20107;-91
2022/11/21 09:03:47;;;;;;;39.90;18.30;;;;;;;;;;6216981;23;20004;-91
2022/11/21 09:06:13;;;;;;;43.17;19.35;;;;;;;;;;6190717;23;20012;-92
2022/11/21 09:08:39;;;;;;;44.35;17.92;;;;;;;;;;6192502;23;20016;-91
2022/11/21 09:11:06;;;;;;;32.25;14.15;;;;;;;;;;6215672;23;20004;-92
2022/11/21 09:13:32;;;;;;;48.55;20.60;;;;;;;;;;6216554;23;20439;-91
2022/11/21 09:18:44;;;;;;;45.83;18.67;;;;;;;;;;6243244;23;20101;-91
2022/11/21 09:21:20;;;;;;;27.48;13.07;;;;;;;;;;6214457;23;20004;-92
2022/11/21 09:23:46;;;;;;;31.42;13.10;;;;;;;;;;6215013;23;20035;-91
2022/11/21 09:26:12;;;;;;;41.03;18.40;;;;;;;;;;6215013;23;20009;-91
2022/11/21 09:28:40;;;;;;;30.50;11.90;;;;;;;;;;6191461;23;20016;-91
2022/11/21 09:31:06;;;;;;;17.35;8.48;;;;;;;;;;6216175;23;20004;-92
2022/11/21 09:33:35;;;;;;;21.40;9.35;;;;;;;;;;6191671;23;20027;-91
2022/11/21 09:36:01;;;;;;;36.47;15.20;;;;;;;;;;6192207;23;20099;-91
2022/11/21 09:38:28;;;;;;;37.10;16.83;;;;;;;;;;6191999;23;20446;-92
2022/11/21 09:41:50;;;;;;;41.70;17.92;;;;;;;;;;6193275;23;20309;-92
2022/11/21 09:44:07;;;;;;;43.03;16.15;;;;;;;;;;6243241;23;20005;-92
2022/11/21 09:46:40;;;;;;;32.47;12.63;;;;;;;;;;6217655;22;20004;-92
2022/11/21 09:49:14;;;;;;;37.97;15.88;;;;;;;;;;6217255;22;20205;-91
2022/11/21 09:51:41;;;;;;;40.05;17.58;;;;;;;;;;6216640;23;20368;-91
2022/11/21 09:54:13;;;;;;;31.70;12.55;;;;;;;;;;6216492;23;20000;-92
2022/11/21 09:56:41;;;;;;;43.20;15.90;;;;;;;;;;6218270;23;20428;-92
2022/11/21 09:59:42;;;;;;;31.77;15.05;;;;;;;;;;6219765;23;20258;-92
2022/11/21 10:02:18;;;;;;;32.63;16.42;;;;;;;;;;6094371;23;20339;-91
2022/11/21 10:04:48;;;;;;;35.97;15.50;;;;;;;;;;6203350;23;20094;-92
2022/11/21 10:07:21;;;;;;;36.15;15.38;;;;;;;;;;6215422;23;20012;-91
2022/11/21 10:10:03;;;;;;;39.53;15.35;;;;;;;;;;6214406;23;20000;-92
2022/11/21 10:12:40;;;;;;;34.60;14.45;;;;;;;;;;6216949;23;20014;-91
2022/11/21 10:15:06;;;;;;;38.53;15.77;;;;;;;;;;6218645;23;20004;-92
2022/11/21 10:17:35;;;;;;;42.35;15.98;;;;;;;;;;6216795;23;20565;-92
2022/11/21 10:20:09;;;;;;;37.40;15.95;;;;;;;;;;6216238;23;20012;-92
2022/11/21 10:22:35;;;;;;;41.17;16.20;;;;;;;;;;6214733;23;20015;-91
2022/11/21 10:25:01;;;;;;;32.45;13.93;;;;;;;;;;6217476;23;20011;-92
2022/11/21 10:27:46;;;;;;;31.63;14.77;;;;;;;;;;6217385;23;20000;-92
2022/11/21 10:30:14;;;;;;;35.77;14.50;;;;;;;;;;6219667;23;20004;-90
2022/11/21 10:32:43;;;;;;;35.63;14.60;;;;;;;;;;6224734;23;20695;-92
2022/11/21 10:35:14;;;;;;;33.05;14.95;;;;;;;;;;6229450;22;20038;-93
2022/11/21 10:37:43;;;;;;;34.15;15.13;;;;;;;;;;6238703;23;20005;-93
2022/11/21 10:40:24;;;;;;;32.50;14.50;;;;;;;;;;6235086;23;20004;-93
2022/11/21 10:45:58;;;;;;;92.22;17.02;;;;;;;;;;6252422;23;20019;-93
2022/11/21 10:48:31;;;;;;;33.60;15.60;;;;;;;;;;6185558;22;20381;-93
2022/11/21 10:51:13;;;;;;;31.33;13.23;;;;;;;;;;6218411;22;20039;-92
2022/11/21 10:56:26;;;;;;;39.42;16.85;;;;;;;;;;6245188;23;20472;-92
2022/11/21 10:58:53;;;;;;;31.90;14.52;;;;;;;;;;6218291;23;20012;-92
2022/11/21 11:01:30;;;;;;;29.75;14.20;;;;;;;;;;6218236;23;20004;-92
2022/11/21 11:04:05;;;;;;;38.35;16.52;;;;;;;;;;6217698;23;20381;-92
2022/11/21 11:06:31;;;;;;;36.90;14.32;;;;;;;;;;6216590;23;20471;-91
2022/11/21 11:08:57;;;;;;;30.85;14.75;;;;;;;;;;6191502;23;20008;-92
2022/11/21 11:11:26;;;;;;;31.23;14.93;;;;;;;;;;6192422;23;20008;-93
2022/11/21 11:13:56;;;;;;;19.55;8.10;;;;;;;;;;6215823;23;20007;-92
2022/11/21 11:16:23;;;;;;;34.45;16.13;;;;;;;;;;6214805;23;20004;-92
2022/11/21 11:18:58;;;;;;;31.27;14.18;;;;;;;;;;6190985;23;20163;-92
2022/11/21 11:21:26;;;;;;;28.67;13.60;;;;;;;;;;6215972;23;20059;-91
2022/11/21 11:23:53;;;;;;;24.80;11.93;;;;;;;;;;6213793;23;20004;-92
2022/11/21 11:26:21;;;;;;;30.45;13.90;;;;;;;;;;6214418;23;19996;-91
2022/11/21 11:28:47;;;;;;;15.63;9.82;;;;;;;;;;6214112;23;20028;-92
2022/11/21 11:31:13;;;;;;;29.15;11.98;;;;;;;;;;6214008;23;20000;-93
2022/11/21 11:33:40;;;;;;;22.65;11.93;;;;;;;;;;6190242;23;20372;-91
2022/11/21 11:36:09;;;;;;;21.40;11.50;;;;;;;;;;6214713;23;20035;-92
2022/11/21 11:38:35;;;;;;;23.65;12.50;;;;;;;;;;6215059;23;20008;-92
2022/11/21 11:41:05;;;;;;;26.52;13.70;;;;;;;;;;6187542;23;20011;-91
2022/11/21 11:52:22;;;;;;;28.70;10.93;;;;;;;;;;6241302;23;20015;-92
2022/11/21 11:54:52;;;;;;;19.00;9.55;;;;;;;;;;6213739;23;20008;-91
2022/11/21 11:57:18;;;;;;;14.82;8.00;;;;;;;;;;6211399;23;20008;-91
2022/11/21 11:59:47;;;;;;;16.27;8.60;;;;;;;;;;6189927;23;20012;-91
2022/11/21 12:02:13;;;;;;;16.95;9.10;;;;;;;;;;6213697;23;20020;-92
2022/11/21 12:04:48;;;;;;;13.38;7.93;;;;;;;;;;6213796;23;20016;-92
2022/11/21 12:07:19;;;;;;;18.48;8.95;;;;;;;;;;6213282;23;20015;-92
2022/11/21 12:09:58;;;;;;;15.85;9.20;;;;;;;;;;6214159;23;20294;-93
2022/11/21 12:12:38;;;;;;;16.95;8.15;;;;;;;;;;6213630;23;20034;-92
2022/11/21 12:18:17;;;;;;;17.33;9.05;;;;;;;;;;6239891;23;20023;-92
2022/11/21 12:21:01;;;;;;;19.65;9.98;;;;;;;;;;6214424;23;20437;-91
2022/11/21 12:23:37;;;;;;;22.13;9.77;;;;;;;;;;6214307;23;20027;-92
2022/11/21 12:26:02;;;;;;;24.38;9.88;;;;;;;;;;6213335;23;20087;-91
2022/11/21 12:28:35;;;;;;;21.67;10.00;;;;;;;;;;6213263;23;20004;-91
2022/11/21 12:31:06;;;;;;;20.70;11.20;;;;;;;;;;6213328;23;20012;-92
2022/11/21 12:33:35;;;;;;;23.50;10.70;;;;;;;;;;6212325;23;20015;-92
2022/11/21 12:36:10;;;;;;;23.45;11.00;;;;;;;;;;6213892;23;20008;-91
2022/11/21 12:38:36;;;;;;;22.67;11.98;;;;;;;;;;6212609;23;20353;-92
2022/11/21 12:44:01;;;;;;;37.55;12.50;;;;;;;;;;6240799;23;20378;-92
2022/11/21 12:46:35;;;;;;;27.08;13.65;;;;;;;;;;6211337;23;20441;-92
2022/11/21 12:55:05;;;;;;;29.45;13.77;;;;;;;;;;6238899;23;20030;-92
2022/11/21 12:57:51;;;;;;;28.30;13.93;;;;;;;;;;6211316;23;20043;-92
2022/11/21 13:00:23;;;;;;;27.75;12.88;;;;;;;;;;6153332;23;20004;-92
2022/11/21 13:02:59;;;;;;;17.58;6.90;;;;;;;;;;6213522;23;20000;-91
2022/11/21 13:05:27;;;;;;;30.33;14.00;;;;;;;;;;6216006;23;20377;-92
2022/11/21 13:08:01;;;;;;;27.85;11.85;;;;;;;;;;6211839;23;20091;-91
2022/11/21 13:10:28;;;;;;;24.52;11.88;;;;;;;;;;6213981;23;20011;-93
2022/11/21 13:13:00;;;;;;;19.90;7.93;;;;;;;;;;6213221;23;20091;-92
2022/11/21 13:15:46;;;;;;;28.80;13.30;;;;;;;;;;6215199;23;20396;-91
2022/11/21 13:18:24;;;;;;;30.00;13.75;;;;;;;;;;6214945;23;20008;-92
2022/11/21 13:20:51;;;;;;;29.50;14.63;;;;;;;;;;6214888;23;20317;-90
2022/11/21 13:23:33;;;;;;;27.42;12.15;;;;;;;;;;6215806;23;20428;-91
2022/11/21 13:25:59;;;;;;;23.17;11.40;;;;;;;;;;6213372;23;20012;-91
2022/11/21 13:28:33;;;;;;;24.55;9.07;;;;;;;;;;6188305;23;20016;-90
2022/11/21 13:31:00;;;;;;;24.52;10.15;;;;;;;;;;6215873;23;20031;-91
2022/11/21 13:33:38;;;;;;;24.73;12.15;;;;;;;;;;6190065;23;20011;-90
2022/11/21 13:36:05;;;;;;;23.27;11.30;;;;;;;;;;6213061;23;20008;-92
2022/11/21 13:38:50;;;;;;;20.95;8.38;;;;;;;;;;6189701;23;20042;-91
2022/11/21 13:44:42;;;;;;;22.00;10.35;;;;;;;;;;6243486;23;20019;-91
2022/11/21 13:47:08;;;;;;;18.88;8.93;;;;;;;;;;6199738;23;20014;-92
2022/11/21 13:49:34;;;;;;;20.38;10.98;;;;;;;;;;6213891;22;20039;-91
2022/11/21 13:52:05;;;;;;;24.40;10.48;;;;;;;;;;6216065;23;20606;-92
2022/11/21 13:54:54;;;;;;;22.60;10.43;;;;;;;;;;6214719;23;20043;-91
2022/11/21 13:57:20;;;;;;;19.33;8.50;;;;;;;;;;6220677;23;20073;-91
2022/11/21 13:59:53;;;;;;;23.52;10.25;;;;;;;;;;6216533;23;20072;-91
2022/11/21 14:02:30;;;;;;;22.08;10.68;;;;;;;;;;6218010;23;20008;-92
2022/11/21 14:05:23;;;;;;;20.75;10.15;;;;;;;;;;6218852;23;20054;-90
2022/11/21 14:07:49;;;;;;;21.27;9.27;;;;;;;;;;6174097;23;20015;-91
2022/11/21 14:10:24;;;;;;;17.52;9.02;;;;;;;;;;6192668;23;20040;-91
2022/11/21 14:12:51;;;;;;;22.75;10.25;;;;;;;;;;6215383;23;20008;-92
2022/11/21 14:15:23;;;;;;;22.42;10.57;;;;;;;;;;6191845;23;20329;-91
2022/11/21 14:17:56;;;;;;;18.33;9.25;;;;;;;;;;6215072;23;20004;-91
2022/11/21 14:20:25;;;;;;;21.45;9.82;;;;;;;;;;6215300;23;20368;-90
2022/11/21 14:22:58;;;;;;;23.13;11.20;;;;;;;;;;6214590;23;19996;-92
2022/11/21 14:25:29;;;;;;;20.02;9.98;;;;;;;;;;6214835;23;20004;-91
2022/11/21 14:27:55;;;;;;;21.17;11.20;;;;;;;;;;6213755;23;20012;-92
2022/11/21 14:30:28;;;;;;;22.27;10.10;;;;;;;;;;6190093;23;20008;-91
2022/11/21 14:32:54;;;;;;;21.25;10.10;;;;;;;;;;6214103;23;20464;-91
2022/11/21 14:35:22;;;;;;;21.60;10.73;;;;;;;;;;6189024;23;20099;-92
2022/11/21 14:37:48;;;;;;;22.52;9.75;;;;;;;;;;6213230;23;20354;-91
2022/11/21 14:40:24;;;;;;;22.70;10.52;;;;;;;;;;6212406;23;20062;-91
2022/11/21 14:42:50;;;;;;;20.77;10.23;;;;;;;;;;6215467;23;20015;-91
2022/11/21 14:45:18;;;;;;;24.77;11.15;;;;;;;;;;6189945;23;20115;-91
2022/11/21 14:47:53;;;;;;;28.00;12.05;;;;;;;;;;6214982;23;20008;-92
2022/11/21 14:50:23;;;;;;;24.65;11.07;;;;;;;;;;6214112;22;20027;-92
2022/11/21 14:52:56;;;;;;;27.00;12.27;;;;;;;;;;6213954;23;20510;-92
2022/11/21 14:55:27;;;;;;;32.47;11.75;;;;;;;;;;6216409;23;20000;-91
2022/11/21 14:57:53;;;;;;;21.52;9.68;;;;;;;;;;6214698;23;20035;-91
2022/11/21 15:00:21;;;;;;;26.90;11.63;;;;;;;;;;6191111;23;20012;-92
2022/11/21 15:02:50;;;;;;;28.80;11.60;;;;;;;;;;6215096;23;20018;-91
2022/11/21 15:05:16;;;;;;;28.63;11.80;;;;;;;;;;6215817;23;20054;-91
2022/11/21 15:07:44;;;;;;;24.95;12.15;;;;;;;;;;6189559;23;20008;-91
2022/11/21 15:10:18;;;;;;;26.67;10.85;;;;;;;;;;6214367;23;20087;-92